createdAt,value
2022-10-13T00:01:12.490Z,31.17
2022-10-13T00:03:41.882Z,26.47
2022-10-13T00:06:12.061Z,33.30
2022-10-13T00:08:40.796Z,29.50
2022-10-13T00:11:13.618Z,30.83
2022-10-13T00:13:42.437Z,29.80
2022-10-13T00:16:14.264Z,32.57
2022-10-13T00:18:42.235Z,29.13
2022-10-13T00:21:11.953Z,29.53
2022-10-13T00:23:40.744Z,32.27
2022-10-13T00:26:10.536Z,43.13
2022-10-13T00:28:39.117Z,39.30
2022-10-13T00:31:18.089Z,37.63
2022-10-13T00:33:46.059Z,37.87
2022-10-13T00:36:14.046Z,37.80
2022-10-13T00:38:42.283Z,35.10
2022-10-13T00:41:10.840Z,33.70
2022-10-13T00:43:52.888Z,35.20
2022-10-13T00:46:22.217Z,34.27
2022-10-13T00:48:51.863Z,35.00
2022-10-13T00:51:23.623Z,35.17
2022-10-13T00:53:52.494Z,36.97
2022-10-13T00:56:22.350Z,35.47
2022-10-13T00:58:50.871Z,32.57
2022-10-13T01:01:19.031Z,35.23
2022-10-13T01:03:48.291Z,33.40
2022-10-13T01:06:23.273Z,34.50
2022-10-13T01:08:51.997Z,36.50
2022-10-13T01:11:49.291Z,36.73
2022-10-13T01:14:24.570Z,34.17
2022-10-13T01:17:02.180Z,34.43
2022-10-13T01:20:01.013Z,32.77
2022-10-13T01:22:46.771Z,32.13
2022-10-13T01:25:30.121Z,32.90
2022-10-13T01:28:16.079Z,32.70
2022-10-13T01:30:50.238Z,32.07
2022-10-13T01:33:27.937Z,34.80
2022-10-13T01:36:03.761Z,33.30
2022-10-13T01:38:38.252Z,34.67
2022-10-13T01:41:12.853Z,34.00
2022-10-13T01:43:45.483Z,34.47
2022-10-13T01:46:18.554Z,33.57
2022-10-13T01:48:46.894Z,32.43
2022-10-13T01:51:17.684Z,32.67
2022-10-13T01:53:47.153Z,31.73
2022-10-13T01:56:15.412Z,32.80
2022-10-13T01:58:43.324Z,32.83
2022-10-13T02:01:30.611Z,31.00
2022-10-13T02:04:11.018Z,31.03
2022-10-13T02:06:44.263Z,31.97
2022-10-13T02:09:17.160Z,31.23
2022-10-13T02:11:50.486Z,31.50
2022-10-13T02:14:23.175Z,31.10
2022-10-13T02:16:54.419Z,32.20
2022-10-13T02:19:23.062Z,32.03
2022-10-13T02:21:51.410Z,29.67
2022-10-13T02:24:19.792Z,29.37
2022-10-13T02:26:48.121Z,30.23
2022-10-13T02:29:17.821Z,31.60
2022-10-13T02:31:46.673Z,29.23
2022-10-13T02:34:16.197Z,29.83
2022-10-13T02:36:44.464Z,29.20
2022-10-13T02:39:12.861Z,30.67
2022-10-13T02:41:40.782Z,31.43
2022-10-13T02:44:09.018Z,31.33
2022-10-13T02:46:36.990Z,30.77
2022-10-13T02:49:04.939Z,30.83
2022-10-13T02:51:38.966Z,32.17
2022-10-13T02:54:08.282Z,33.97
2022-10-13T02:56:36.507Z,34.23
2022-10-13T02:59:04.762Z,37.33
2022-10-13T03:01:33.125Z,37.73
2022-10-13T03:04:01.026Z,38.03
2022-10-13T03:06:28.904Z,35.30
2022-10-13T03:08:58.147Z,34.03
2022-10-13T03:11:26.124Z,32.67
2022-10-13T03:13:54.249Z,29.67
2022-10-13T03:16:22.187Z,30.03
2022-10-13T03:18:50.085Z,28.57
2022-10-13T03:21:18.046Z,29.87
2022-10-13T03:23:45.948Z,28.43
2022-10-13T03:26:15.610Z,28.00
2022-10-13T03:28:43.656Z,29.63
2022-10-13T03:31:13.712Z,27.03
2022-10-13T03:33:42.065Z,25.63
2022-10-13T03:36:11.591Z,25.70
2022-10-13T03:38:39.506Z,23.70
2022-10-13T03:41:08.469Z,24.00
2022-10-13T03:43:38.144Z,21.07
2022-10-13T03:46:07.873Z,20.23
2022-10-13T03:48:37.009Z,18.17
2022-10-13T03:51:07.385Z,20.27
2022-10-13T03:53:36.012Z,20.83
2022-10-13T03:56:05.098Z,21.77
2022-10-13T03:58:33.367Z,22.07
2022-10-13T04:01:06.956Z,21.77
2022-10-13T04:03:35.604Z,22.90
2022-10-13T04:06:05.036Z,23.97
2022-10-13T04:08:34.763Z,22.97
2022-10-13T04:11:04.114Z,24.67
2022-10-13T04:13:32.337Z,23.50
2022-10-13T04:16:05.131Z,24.13
2022-10-13T04:18:33.335Z,24.57
2022-10-13T04:21:01.769Z,26.23
2022-10-13T04:23:29.667Z,25.10
2022-10-13T04:25:57.775Z,26.57
2022-10-13T04:28:25.862Z,26.57
2022-10-13T04:30:54.075Z,26.03
2022-10-13T04:33:23.330Z,26.50
2022-10-13T04:35:51.286Z,26.30
2022-10-13T04:38:19.178Z,23.43
2022-10-13T04:40:47.085Z,21.47
2022-10-13T04:43:15.886Z,22.77
2022-10-13T04:45:43.890Z,23.63
2022-10-13T04:48:11.973Z,24.77
2022-10-13T04:50:41.331Z,25.17
2022-10-13T04:53:09.258Z,27.00
2022-10-13T04:55:37.601Z,26.37
2022-10-13T04:58:05.842Z,27.93
2022-10-13T05:00:33.872Z,28.00
2022-10-13T05:03:01.861Z,29.23
2022-10-13T05:05:29.727Z,28.43
2022-10-13T05:07:58.973Z,29.63
2022-10-13T05:10:30.147Z,28.50
2022-10-13T05:13:00.472Z,30.03
2022-10-13T05:15:28.431Z,31.90
2022-10-13T05:17:56.563Z,31.73
2022-10-13T05:20:24.451Z,29.37
2022-10-13T05:22:52.419Z,30.40
2022-10-13T05:25:22.187Z,29.60
2022-10-13T05:27:50.064Z,31.13
2022-10-13T05:30:18.123Z,30.10
2022-10-13T05:32:48.289Z,32.53
2022-10-13T05:35:18.364Z,31.53
2022-10-13T05:37:46.242Z,32.60
2022-10-13T05:40:14.506Z,30.83
2022-10-13T05:42:43.842Z,32.50
2022-10-13T05:45:13.427Z,31.37
2022-10-13T05:47:41.696Z,30.13
2022-10-13T05:50:10.115Z,29.83
2022-10-13T05:52:38.860Z,30.73
2022-10-13T05:55:11.018Z,31.73
2022-10-13T05:57:42.096Z,32.27
2022-10-13T06:00:14.467Z,34.33
2022-10-13T06:02:44.230Z,34.50
2022-10-13T06:05:15.057Z,32.60
2022-10-13T06:07:43.896Z,29.93
2022-10-13T06:10:12.620Z,28.87
2022-10-13T06:12:40.875Z,30.83
2022-10-13T06:15:09.890Z,31.03
2022-10-13T06:17:40.008Z,32.27
2022-10-13T06:20:09.776Z,35.60
2022-10-13T06:22:38.477Z,36.47
2022-10-13T06:25:08.310Z,37.77
2022-10-13T06:27:36.202Z,37.53
2022-10-13T06:30:04.365Z,38.13
2022-10-13T06:32:32.276Z,37.90
2022-10-13T06:35:01.531Z,39.87
2022-10-13T06:37:29.482Z,38.73
2022-10-13T06:39:57.730Z,35.17
2022-10-13T06:42:25.988Z,34.67
2022-10-13T06:44:54.246Z,35.67
2022-10-13T06:47:22.460Z,35.47
2022-10-13T06:49:50.715Z,35.10
2022-10-13T06:52:20.526Z,33.63
2022-10-13T06:54:48.938Z,33.83
2022-10-13T06:57:17.303Z,36.73
2022-10-13T06:59:45.544Z,35.40
2022-10-13T07:02:13.776Z,35.87
2022-10-13T07:04:42.002Z,36.17
2022-10-13T07:07:10.228Z,35.23
2022-10-13T07:09:39.872Z,35.27
2022-10-13T07:12:08.563Z,30.63
2022-10-13T07:14:39.214Z,33.03
2022-10-13T07:17:09.903Z,32.50
2022-10-13T07:19:38.174Z,29.60
2022-10-13T07:22:06.427Z,29.93
2022-10-13T07:24:34.719Z,30.87
2022-10-13T07:27:07.797Z,30.53
2022-10-13T07:29:36.418Z,27.97
2022-10-13T07:32:04.685Z,28.90
2022-10-13T07:34:32.966Z,26.57
2022-10-13T07:37:01.220Z,25.93
2022-10-13T07:39:30.621Z,26.73
2022-10-13T07:41:58.841Z,26.17
2022-10-13T07:44:28.682Z,25.17
2022-10-13T07:46:56.898Z,23.80
2022-10-13T07:49:25.320Z,23.97
2022-10-13T07:51:53.627Z,22.53
2022-10-13T07:54:23.844Z,23.00
2022-10-13T07:56:56.238Z,22.70
2022-10-13T07:59:24.516Z,21.47
2022-10-13T08:01:54.326Z,20.90
2022-10-13T08:04:22.600Z,19.73
2022-10-13T08:06:50.881Z,20.53
2022-10-13T08:09:19.097Z,18.40
2022-10-13T08:11:47.347Z,19.07
2022-10-13T08:14:15.628Z,20.67
2022-10-13T08:16:48.650Z,17.87
2022-10-13T08:19:22.144Z,16.92
2022-10-13T08:21:59.186Z,17.90
2022-10-13T08:24:28.348Z,16.33
2022-10-13T08:26:56.635Z,15.13
2022-10-13T08:29:24.852Z,16.17
2022-10-13T08:31:53.675Z,15.43
2022-10-13T08:34:23.536Z,13.52
2022-10-13T08:36:53.513Z,13.05
2022-10-13T08:39:22.104Z,11.57
2022-10-13T08:41:50.654Z,10.65
2022-10-13T08:47:14.199Z,9.55
2022-10-13T08:49:46.172Z,9.18
2022-10-13T08:52:19.023Z,8.73
2022-10-13T08:54:47.697Z,7.68
2022-10-13T08:57:16.105Z,6.97
2022-10-13T08:59:44.381Z,7.15
2022-10-13T09:02:14.210Z,6.05
2022-10-13T09:04:46.617Z,5.72
2022-10-13T09:07:16.781Z,5.40
2022-10-13T09:09:45.642Z,5.28
2022-10-13T09:12:15.690Z,4.88
2022-10-13T09:14:43.947Z,4.60
2022-10-13T09:17:17.083Z,4.70
2022-10-13T09:19:47.805Z,4.13
2022-10-13T09:22:17.470Z,4.35
2022-10-13T09:24:45.916Z,3.45
2022-10-13T09:27:16.468Z,4.38
2022-10-13T09:29:45.147Z,3.45
2022-10-13T09:32:18.219Z,3.25
2022-10-13T09:34:48.710Z,3.55
2022-10-13T09:37:21.385Z,3.25
2022-10-13T09:40:02.106Z,2.63
2022-10-13T09:42:31.948Z,3.70
2022-10-13T09:45:01.713Z,3.35
2022-10-13T09:47:30.918Z,3.42
2022-10-13T09:50:06.518Z,3.53
2022-10-13T09:52:36.236Z,3.38
2022-10-13T09:55:04.458Z,2.97
2022-10-13T09:57:36.368Z,3.45
2022-10-13T10:00:09.520Z,3.22
2022-10-13T10:02:39.202Z,3.50
2022-10-13T10:05:15.875Z,3.65
2022-10-13T10:07:44.555Z,3.70
2022-10-13T10:10:18.161Z,4.03
2022-10-13T10:12:47.074Z,4.20
2022-10-13T10:15:22.137Z,3.78
2022-10-13T10:17:54.197Z,4.18
2022-10-13T10:20:37.400Z,4.18
2022-10-13T10:23:07.830Z,4.57
2022-10-13T10:25:39.849Z,4.75
2022-10-13T10:28:16.286Z,4.25
2022-10-13T10:30:45.993Z,5.22
2022-10-13T10:33:15.506Z,4.43
2022-10-13T10:35:50.394Z,4.30
2022-10-13T10:38:30.134Z,4.20
2022-10-13T10:41:06.102Z,4.32
2022-10-13T10:43:44.329Z,3.97
2022-10-13T10:46:17.019Z,4.35
2022-10-13T10:48:46.902Z,3.60
2022-10-13T10:51:16.462Z,3.75
2022-10-13T10:53:54.934Z,4.07
2022-10-13T10:56:30.191Z,4.28
2022-10-13T10:59:23.778Z,4.43
2022-10-13T11:02:08.087Z,4.75
2022-10-13T11:04:41.557Z,4.45
2022-10-13T11:07:16.012Z,4.40
2022-10-13T11:10:17.479Z,4.35
2022-10-13T11:13:27.199Z,4.22
2022-10-13T11:15:55.703Z,4.00
2022-10-13T11:18:56.431Z,4.57
2022-10-13T11:21:24.311Z,3.83
2022-10-13T11:23:54.833Z,4.00
2022-10-13T11:26:32.476Z,3.85
2022-10-13T11:29:01.097Z,3.92
2022-10-13T11:31:35.270Z,3.78
2022-10-13T11:34:04.600Z,3.95
2022-10-13T11:36:47.921Z,4.40
2022-10-13T11:40:00.399Z,3.63
2022-10-13T11:42:59.247Z,3.70
2022-10-13T11:46:04.437Z,3.90
2022-10-13T11:49:15.819Z,2.95
2022-10-13T11:52:04.294Z,3.20
2022-10-13T11:54:37.673Z,3.17
2022-10-13T11:57:19.837Z,3.63
2022-10-13T11:59:51.546Z,3.30
2022-10-13T12:02:19.784Z,3.08
2022-10-13T12:05:02.078Z,2.75
2022-10-13T12:07:35.782Z,2.50
2022-10-13T12:10:09.812Z,3.40
2022-10-13T12:12:37.869Z,3.22
2022-10-13T12:15:32.136Z,3.40
2022-10-13T12:18:00.278Z,3.13
2022-10-13T12:20:30.147Z,3.22
2022-10-13T12:22:58.575Z,2.88
2022-10-13T12:25:30.998Z,3.45
2022-10-13T12:28:01.004Z,2.88
2022-10-13T12:30:31.752Z,3.22
2022-10-13T12:33:01.615Z,3.53
2022-10-13T12:35:31.656Z,3.25
2022-10-13T12:38:03.573Z,3.30
2022-10-13T12:40:33.097Z,3.65
2022-10-13T12:43:01.384Z,3.22
2022-10-13T12:45:32.972Z,2.97
2022-10-13T12:48:00.931Z,3.20
2022-10-13T12:50:39.034Z,3.00
2022-10-13T12:53:14.614Z,3.20
2022-10-13T12:55:55.219Z,3.00
2022-10-13T12:58:26.315Z,3.28
2022-10-13T13:01:02.063Z,3.08
2022-10-13T13:03:31.264Z,3.22
2022-10-13T13:06:11.150Z,3.50
2022-10-13T13:08:39.238Z,3.45
2022-10-13T13:11:20.719Z,4.60
2022-10-13T13:13:48.680Z,3.70
2022-10-13T13:16:18.237Z,4.03
2022-10-13T13:18:46.926Z,3.70
2022-10-13T13:21:16.741Z,3.50
2022-10-13T13:23:51.048Z,3.38
2022-10-13T13:26:24.536Z,4.00
2022-10-13T13:28:54.106Z,3.58
2022-10-13T13:31:24.387Z,3.63
2022-10-13T13:33:52.598Z,3.50
2022-10-13T13:36:22.526Z,3.70
2022-10-13T13:38:51.220Z,3.35
2022-10-13T13:41:19.240Z,3.05
2022-10-13T13:43:48.773Z,3.45
2022-10-13T13:46:20.451Z,3.15
2022-10-13T13:48:48.618Z,3.13
2022-10-13T13:51:16.836Z,3.15
2022-10-13T13:53:45.035Z,3.95
2022-10-13T13:56:15.067Z,3.40
2022-10-13T13:58:43.183Z,3.08
2022-10-13T14:01:14.031Z,3.40
2022-10-13T14:03:41.939Z,3.38
2022-10-13T14:06:10.081Z,3.60
2022-10-13T14:08:42.312Z,3.45
2022-10-13T14:11:11.602Z,3.28
2022-10-13T14:13:39.604Z,3.30
2022-10-13T14:16:08.058Z,3.60
2022-10-13T14:18:37.313Z,4.10
2022-10-13T14:21:07.243Z,3.75
2022-10-13T14:23:36.082Z,3.70
2022-10-13T14:26:07.983Z,3.92
2022-10-13T14:28:35.954Z,3.72
2022-10-13T14:31:07.739Z,4.07
2022-10-13T14:33:38.103Z,4.30
2022-10-13T14:36:08.195Z,4.30
2022-10-13T14:38:36.377Z,4.20
2022-10-13T14:41:07.650Z,4.15
2022-10-13T14:43:35.567Z,4.38
2022-10-13T14:46:05.011Z,4.00
2022-10-13T14:48:33.005Z,4.35
2022-10-13T14:51:05.687Z,3.67
2022-10-13T14:53:35.112Z,4.10
2022-10-13T14:56:03.344Z,4.25
2022-10-13T14:58:31.285Z,4.22
2022-10-13T15:00:59.192Z,4.38
2022-10-13T15:03:27.883Z,4.45
2022-10-13T15:05:55.820Z,4.22
2022-10-13T15:08:25.126Z,4.43
2022-10-13T15:10:59.854Z,4.38
2022-10-13T15:13:27.934Z,4.22
2022-10-13T15:15:55.960Z,4.93
2022-10-13T15:18:28.381Z,5.30
2022-10-13T15:20:57.799Z,5.00
2022-10-13T15:23:27.576Z,4.10
2022-10-13T15:25:57.097Z,4.45
2022-10-13T15:28:26.518Z,5.30
2022-10-13T15:30:54.497Z,4.50
2022-10-13T15:33:23.027Z,4.88
2022-10-13T15:35:51.679Z,4.80
2022-10-13T15:38:21.084Z,4.88
2022-10-13T15:40:50.799Z,5.00
2022-10-13T15:43:19.355Z,5.07
2022-10-13T15:45:55.059Z,5.03
2022-10-13T15:48:23.184Z,5.85
2022-10-13T15:50:51.087Z,6.50
2022-10-13T15:53:19.773Z,7.10
2022-10-13T15:55:48.045Z,6.72
2022-10-13T15:58:17.514Z,6.28
2022-10-13T16:00:45.884Z,7.20
2022-10-13T16:03:16.881Z,7.50
2022-10-13T16:05:45.746Z,6.07
2022-10-13T16:08:14.023Z,7.35
2022-10-13T16:10:43.281Z,6.78
2022-10-13T16:13:14.984Z,7.55
2022-10-13T16:15:44.299Z,6.90
2022-10-13T16:18:12.365Z,7.05
2022-10-13T16:20:45.251Z,6.45
2022-10-13T16:23:13.161Z,7.15
2022-10-13T16:25:41.169Z,7.15
2022-10-13T16:28:09.071Z,6.63
2022-10-13T16:30:37.445Z,7.57
2022-10-13T16:33:06.806Z,7.75
2022-10-13T16:35:35.283Z,8.32
2022-10-13T16:38:03.207Z,8.52
2022-10-13T16:40:31.110Z,8.32
2022-10-13T16:42:58.985Z,8.40
2022-10-13T16:45:47.875Z,9.23
2022-10-13T16:48:16.241Z,8.95
2022-10-13T16:50:44.203Z,8.98
2022-10-13T16:53:12.117Z,9.40
2022-10-13T16:55:40.618Z,8.48
2022-10-13T16:58:08.527Z,9.13
2022-10-13T17:00:36.927Z,9.25
2022-10-13T17:03:05.092Z,9.70
2022-10-13T17:05:34.875Z,8.50
2022-10-13T17:08:02.802Z,8.88
2022-10-13T17:10:30.705Z,8.38
2022-10-13T17:12:58.594Z,8.27
2022-10-13T17:15:26.684Z,8.40
2022-10-13T17:17:54.590Z,7.85
2022-10-13T17:20:22.580Z,8.35
2022-10-13T17:22:51.806Z,8.55
2022-10-13T17:25:19.746Z,9.30
2022-10-13T17:27:47.676Z,10.27
2022-10-13T17:30:15.673Z,10.07
2022-10-13T17:32:43.703Z,10.90
2022-10-13T17:35:17.886Z,13.05
2022-10-13T17:37:45.826Z,11.77
2022-10-13T17:40:15.167Z,12.48
2022-10-13T17:42:43.206Z,15.68
2022-10-13T17:45:11.564Z,15.00
2022-10-13T17:47:42.366Z,17.05
2022-10-13T17:50:10.859Z,17.05
2022-10-13T17:52:38.777Z,18.13
2022-10-13T17:55:07.343Z,18.50
2022-10-13T17:57:36.607Z,18.43
2022-10-13T18:00:05.627Z,17.65
2022-10-13T18:02:33.531Z,18.23
2022-10-13T18:05:01.422Z,17.10
2022-10-13T18:07:29.284Z,16.87
2022-10-13T18:09:57.159Z,15.00
2022-10-13T18:12:25.075Z,15.93
2022-10-13T18:14:54.335Z,17.13
2022-10-13T18:17:22.644Z,16.80
2022-10-13T18:19:51.044Z,16.33
2022-10-13T18:22:19.040Z,16.83
2022-10-13T18:24:47.728Z,18.67
2022-10-13T18:27:15.677Z,18.43
2022-10-13T18:29:43.800Z,19.13
2022-10-13T18:32:13.068Z,18.70
2022-10-13T18:34:40.989Z,18.93
2022-10-13T18:37:08.878Z,17.60
2022-10-13T18:39:36.776Z,18.07
2022-10-13T18:42:04.788Z,17.30
2022-10-13T18:44:32.681Z,17.50
2022-10-13T18:47:00.668Z,18.97
2022-10-13T18:49:31.798Z,18.40
2022-10-13T18:52:00.929Z,17.27
2022-10-13T18:54:30.033Z,18.30
2022-10-13T18:56:58.610Z,17.13
2022-10-13T18:59:26.601Z,18.73
2022-10-13T19:01:54.503Z,18.00
2022-10-13T19:04:22.587Z,17.93
2022-10-13T19:06:51.849Z,17.63
2022-10-13T19:09:21.605Z,17.23
2022-10-13T19:11:49.532Z,16.63
2022-10-13T19:14:17.634Z,15.77
2022-10-13T19:16:45.632Z,15.45
2022-10-13T19:19:13.673Z,15.73
2022-10-13T19:21:41.758Z,14.47
2022-10-13T19:24:11.690Z,15.70
2022-10-13T19:26:39.762Z,17.20
2022-10-13T19:29:10.000Z,14.97
2022-10-13T19:31:39.167Z,15.23
2022-10-13T19:34:07.082Z,15.60
2022-10-13T19:36:37.495Z,17.50
2022-10-13T19:39:11.836Z,15.87
2022-10-13T19:41:41.728Z,19.53
2022-10-13T19:44:09.634Z,19.10
2022-10-13T19:46:37.692Z,16.57
2022-10-13T19:49:06.084Z,18.57
2022-10-13T19:51:34.499Z,19.97
2022-10-13T19:54:02.469Z,21.33
2022-10-13T19:56:32.989Z,21.70
2022-10-13T19:59:04.358Z,30.60
2022-10-13T20:01:32.378Z,42.60
2022-10-13T20:04:00.311Z,34.87
2022-10-13T20:06:28.255Z,36.30
2022-10-13T20:08:56.186Z,31.73
2022-10-13T20:11:24.539Z,26.13
2022-10-13T20:13:53.685Z,25.53
2022-10-13T20:16:25.054Z,24.50
2022-10-13T20:18:53.913Z,25.40
2022-10-13T20:21:22.361Z,22.93
2022-10-13T20:23:50.923Z,22.67
2022-10-13T20:26:20.120Z,22.90
2022-10-13T20:28:49.148Z,22.40
2022-10-13T20:31:19.352Z,33.37
2022-10-13T20:33:49.595Z,28.97
2022-10-13T20:36:19.055Z,25.40
2022-10-13T20:38:49.039Z,29.40
2022-10-13T20:41:19.735Z,27.27
2022-10-13T20:43:48.717Z,28.63
2022-10-13T20:46:19.422Z,29.80
2022-10-13T20:51:37.765Z,28.57
2022-10-13T20:54:06.174Z,28.50
2022-10-13T20:56:34.125Z,26.33
2022-10-13T20:59:04.054Z,24.50
2022-10-13T21:01:33.813Z,23.50
2022-10-13T21:04:03.110Z,22.17
2022-10-13T21:06:31.080Z,24.97
2022-10-13T21:08:58.963Z,33.67
2022-10-13T21:11:26.913Z,39.63
2022-10-13T21:13:55.131Z,37.27
2022-10-13T21:16:27.135Z,30.43
2022-10-13T21:18:56.580Z,26.43
2022-10-13T21:21:29.677Z,24.53
2022-10-13T21:23:59.242Z,21.73
2022-10-13T21:26:29.326Z,22.97
2022-10-13T21:28:57.662Z,24.83
2022-10-13T21:31:26.488Z,26.33
2022-10-13T21:33:54.674Z,26.70
2022-10-13T21:36:26.361Z,26.87
2022-10-13T21:38:55.949Z,30.27
2022-10-13T21:41:24.373Z,28.17
2022-10-13T21:43:52.778Z,27.00
2022-10-13T21:46:23.247Z,32.33
2022-10-13T21:48:53.344Z,37.50
2022-10-13T21:51:22.746Z,33.67
2022-10-13T21:53:52.980Z,30.93
2022-10-13T21:56:21.813Z,34.23
2022-10-13T21:58:49.939Z,33.33
2022-10-13T22:01:18.416Z,28.73
2022-10-13T22:03:47.648Z,26.40
2022-10-13T22:06:19.406Z,27.63
2022-10-13T22:08:49.236Z,27.63
2022-10-13T22:11:19.315Z,28.47
2022-10-13T22:13:47.586Z,27.27
2022-10-13T22:16:17.968Z,30.07
2022-10-13T22:18:46.549Z,31.20
2022-10-13T22:21:17.416Z,29.33
2022-10-13T22:23:45.618Z,28.07
2022-10-13T22:26:14.006Z,26.43
2022-10-13T22:28:44.262Z,23.33
2022-10-13T22:31:14.012Z,26.57
2022-10-13T22:33:43.512Z,25.00
2022-10-13T22:36:14.396Z,26.70
2022-10-13T22:38:42.347Z,26.07
2022-10-13T22:41:10.802Z,26.70
2022-10-13T22:43:38.705Z,24.37
2022-10-13T22:46:08.037Z,24.17
2022-10-13T22:48:40.406Z,24.43
2022-10-13T22:51:09.319Z,24.90
2022-10-13T22:53:37.378Z,24.30
2022-10-13T22:56:07.427Z,23.07
2022-10-13T22:58:35.597Z,23.60
2022-10-13T23:01:09.672Z,22.50
2022-10-13T23:03:38.113Z,22.70
2022-10-13T23:06:07.800Z,25.23
2022-10-13T23:08:36.376Z,23.93
2022-10-13T23:11:04.259Z,23.50
2022-10-13T23:13:32.249Z,25.13
2022-10-13T23:16:02.922Z,23.43
2022-10-13T23:18:32.158Z,24.33
2022-10-13T23:21:00.133Z,23.87
2022-10-13T23:23:28.031Z,24.27
2022-10-13T23:25:55.917Z,24.73
2022-10-13T23:28:23.860Z,24.23
2022-10-13T23:30:51.797Z,26.07
2022-10-13T23:33:19.698Z,24.97
2022-10-13T23:35:55.918Z,23.57
2022-10-13T23:38:24.322Z,23.87
2022-10-13T23:40:52.391Z,23.77
2022-10-13T23:43:20.760Z,23.10
2022-10-13T23:45:48.786Z,24.77
2022-10-13T23:48:17.080Z,24.03
2022-10-13T23:50:44.959Z,23.20
2022-10-13T23:53:14.197Z,23.30
2022-10-13T23:55:42.122Z,23.43
2022-10-13T23:58:10.099Z,22.27
